Pagrindinis puslapis
METAR-TAF:

METAR-TAF

Oro uostai :

Kermanas, Iranas

platuma: 30-15N, ilguma: 056-58E, Aukštis: 1748 m

Dabartinis oras

Ataskaita buvo paskelbta 1 valandą ir 5 minutes, ne 03:00 UTC
Ramus vėjas
Temperatūra 1°C
Drėgmė 75%
Slėgis 1024 hPa
Matomumas 10 km arba daugiau
nėra debesų žemiau 1500 m ir nėra kamuolinių lietaus debesų

METAR: OIKK 010300Z 00000KT CAVOK 01/M03 Q1024 A3024

Laikas: 07:35 (04:05 UTC)

Prognozė

Ataskaita buvo paskelbta 4 valandos ir 55 minutes, ne 23:10 UTC
Prognozė galioja nuo 01 metu 00 UTC su 02 metu 06 UTC
Vėjas 8 kt iš Pietų/Pietryčių
Matomumas: 8000 m

TAF: OIKK 302310Z 0100/0206 16008KT 8000 NSC

Orai ataskaitas ir orų prognozės (METAR, TAF).

turimą stotys yra geltonos ir raudonos taškus žemėlapyje.

Perkelti pele per norėdami pamatyti stoties vardą.

Tada spustelėkite, norėdami matyti oro stebėjimo ir prognozės.

Norėdami pakeisti žemėlapį: spustelėkite ant žalios mygtukų su juodo kryžiaus žemyn,; žalią mygtuką su brūkšneliu, jei norite nutolinti; arba žalių rodyklių gretimoms žemėlapius.


METAR-TAF: